Yiewsley, United Kingdom

8:57 AM BST on May 30, 2017 (GMT +0100)
West Drayton, The Green | | Change Station

Elev 89 ft 51.50 °N, 0.48 °W | Updated 2 seconds ago

Mostly Cloudy
Mostly Cloudy
61.3 °F
Feels Like 61.3 °F
N
0.2
Wind Variable Wind from SE
Gusts 2.5 mph

Today
High -- | Low -- °F
--% Chance of Precip.
Yesterday
High -- | Low -- °F
Precip. -- in
Pressure 29.98 in
Visibility 6.2 miles
Clouds Few 1400 ft
Scattered Clouds 1800 ft
Mostly Cloudy 4200 ft
Dew Point 56 °F
Humidity 81%
Rainfall 0.00 in
Snow Depth Not available.
4:51 AM 9:07 PM
Waxing Crescent, 27% visible
METAR EGLL 300750Z 25010KT 9999 FEW014 SCT018 BKN042 16/12 Q1015 NOSIG
Pressure 29.98 in
Visibility 6.2 miles
Clouds Few 1400 ft
Scattered Clouds 1800 ft
Mostly Cloudy 4200 ft
Dew Point 56 °F
Humidity 81%
Rainfall 0.00 in
Snow Depth Not available.
4:51 AM 9:07 PM
Waxing Crescent, 27% visible
METAR EGLL 300750Z 25010KT 9999 FEW014 SCT018 BKN042 16/12 Q1015 NOSIG

Get Severe Weather Alerts

Thanks for signing up!

Be on the lookout for a verification email in your inbox.

You'll start receiving the daily forecast at 6 AM.

×

10-Day Weather Forecast

×

Almanac

Astronomy

May. 30, 2017 Rise Set
Actual Time
Civil Twilight
Nautical Twilight
Astronomical Twilight
Moon
Length of Visible Light
Length of Day
Tomorrow will be .
, % of the Moon is Illuminated

Today's Extremes

Country Highs Country Lows

Community

WunderPhotos

Category 6

Welcome to Category 6. This is the collective home for Weather Underground's featured writeups by Dr. Jeff Masters (right), Bob Henson (left), Chris Burt, and other regular contributors.

Nearby

Air Quality

  Air Quality AQ Index Pollutant
Not available.

Snow Depth

Station Depth Elevation

Earthquake Activity

City Distance Mag. Time & Date
Minimum magnitude displayed is 2.5.

Coastal Water Temperatures

Place Temperature

Stations

Nearby Weather Stations

Station Location Temp. Windchill Dew Point Humidity Wind Precip. Elev Updated Type